Time;durP1;ratioP1;P1;durP2;ratioP2;P2;SDS_P1;SDS_P2;PMS_P1;PMS_P2;Temp;Humidity;BMP_temperature;BMP_pressure;BME280_temperature;BME280_humidity;BME280_pressure;Samples;Min_cycle;Max_cycle;Signal;HPM_P1;HPM_P2
2022/10/18 00:02:03;;;;;;;10.20;6.13;;;;;;;15.73;100.00;155403.03;4997077;28;20485;-76
2022/10/18 00:04:30;;;;;;;8.60;6.80;;;;;;;15.73;100.00;155403.03;4986748;28;20543;-76
2022/10/18 00:06:57;;;;;;;8.03;7.17;;;;;;;15.70;100.00;155395.22;5016326;28;20551;-76
2022/10/18 00:09:23;;;;;;;12.20;7.33;;;;;;;15.67;100.00;155387.41;5010278;28;20429;-76
2022/10/18 00:11:50;;;;;;;9.37;6.80;;;;;;;15.68;100.00;155388.72;5007188;28;20448;-76
2022/10/18 00:14:17;;;;;;;10.53;7.37;;;;;;;15.64;100.00;155378.34;5030002;28;20801;-76
2022/10/18 00:16:43;;;;;;;10.53;6.80;;;;;;;15.63;100.00;155375.72;4994008;28;20432;-76
2022/10/18 00:19:11;;;;;;;6.60;6.00;;;;;;;15.57;100.00;155361.44;5009955;28;20436;-76
2022/10/18 00:21:38;;;;;;;8.23;6.60;;;;;;;15.56;100.00;155358.84;5026038;28;20903;-76
2022/10/18 00:24:06;;;;;;;10.83;6.40;;;;;;;15.52;100.00;155348.44;5026807;28;20444;-76
2022/10/18 00:26:32;;;;;;;7.63;6.50;;;;;;;15.46;100.00;155332.81;5006604;28;20424;-75
2022/10/18 00:29:00;;;;;;;10.33;7.10;;;;;;;15.45;100.00;155330.19;5031313;28;20441;-76
2022/10/18 00:31:29;;;;;;;8.60;6.77;;;;;;;15.46;100.00;155332.81;5031571;28;20502;-76
2022/10/18 00:33:57;;;;;;;9.20;7.23;;;;;;;15.45;100.00;155328.91;5018134;28;20992;-76
2022/10/18 00:36:27;;;;;;;7.93;7.13;;;;;;;15.45;100.00;155330.19;5014688;28;20455;-76
2022/10/18 00:38:54;;;;;;;8.90;7.13;;;;;;;15.43;100.00;155325.00;5030961;28;20522;-76
2022/10/18 00:41:22;;;;;;;10.40;7.50;;;;;;;15.40;100.00;155315.91;5012050;28;20455;-75
2022/10/18 00:43:58;;;;;;;7.27;6.53;;;;;;;15.39;100.00;155314.59;5013174;28;20779;-76
2022/10/18 00:46:26;;;;;;;15.63;6.57;;;;;;;15.36;100.00;155306.78;5013485;28;20447;-76
2022/10/18 00:48:55;;;;;;;6.60;5.90;;;;;;;15.36;100.00;155306.78;5029795;28;20450;-76
2022/10/18 00:51:25;;;;;;;8.30;6.40;;;;;;;15.38;100.00;155311.97;5005081;28;20871;-76
2022/10/18 00:53:52;;;;;;;8.53;6.53;;;;;;;15.38;100.00;155311.97;5011341;28;20946;-76
2022/10/18 00:56:19;;;;;;;10.07;7.40;;;;;;;15.38;100.00;155311.97;5023591;28;20470;-76
2022/10/18 00:58:48;;;;;;;13.23;6.87;;;;;;;15.34;100.00;155301.59;5038304;28;20439;-76
2022/10/18 01:01:14;;;;;;;9.13;7.00;;;;;;;15.33;100.00;155298.97;5001979;28;20483;-76
2022/10/18 01:03:41;;;;;;;8.77;6.10;;;;;;;15.33;100.00;155298.97;5029415;28;20471;-76
2022/10/18 01:06:08;;;;;;;11.70;6.77;;;;;;;15.34;100.00;155301.59;5028022;28;20455;-76
2022/10/18 01:08:45;;;;;;;11.50;7.23;;;;;;;15.34;100.00;155300.28;5010166;28;20459;-76
2022/10/18 01:11:26;;;;;;;7.07;6.20;;;;;;;15.36;100.00;155306.78;5012972;28;20461;-76
2022/10/18 01:14:01;;;;;;;7.90;5.97;;;;;;;15.34;100.00;155301.59;5010428;28;20451;-76
2022/10/18 01:16:33;;;;;;;9.30;6.20;;;;;;;15.36;100.00;155306.78;5014109;28;21171;-76
2022/10/18 01:19:02;;;;;;;9.20;5.67;;;;;;;15.39;100.00;155314.59;5007609;28;20800;-76
2022/10/18 01:21:43;;;;;;;7.30;5.10;;;;;;;15.45;100.00;155330.19;5005921;28;20473;-76
2022/10/18 01:24:36;;;;;;;7.33;6.27;;;;;;;15.49;100.00;155339.38;5023188;28;21017;-76
2022/10/18 01:27:33;;;;;;;5.43;4.90;;;;;;;15.48;100.00;155338.06;5023193;28;20652;-76
2022/10/18 01:30:24;;;;;;;6.20;5.20;;;;;;;15.46;100.00;155332.81;5040349;28;20533;-76
2022/10/18 01:32:52;;;;;;;8.10;6.50;;;;;;;15.47;100.00;155335.44;5044406;28;20526;-76
2022/10/18 01:35:25;;;;;;;6.63;5.60;;;;;;;15.51;100.00;155345.88;5010734;28;20555;-76
2022/10/18 01:37:52;;;;;;;7.27;5.20;;;;;;;15.53;100.00;155351.06;5029161;28;20997;-76
2022/10/18 01:40:20;;;;;;;5.60;4.90;;;;;;;15.51;100.00;155344.56;5009646;28;20791;-76
2022/10/18 01:42:48;;;;;;;7.20;6.07;;;;;;;15.53;100.00;155351.06;5021938;28;20475;-76
2022/10/18 01:45:15;;;;;;;6.53;4.63;;;;;;;15.55;100.00;155354.94;5024533;28;20456;-76
2022/10/18 01:47:44;;;;;;;7.00;4.70;;;;;;;15.53;100.00;155349.75;5020867;28;20542;-76
2022/10/18 01:50:11;;;;;;;5.40;4.90;;;;;;;15.52;100.00;155347.13;5028132;28;20454;-76
2022/10/18 01:52:48;;;;;;;8.47;5.30;;;;;;;15.52;100.00;155347.13;5031689;28;20891;-76
2022/10/18 01:55:14;;;;;;;6.40;4.70;;;;;;;15.50;100.00;155341.94;5009425;28;20462;-76
2022/10/18 01:57:46;;;;;;;5.97;5.27;;;;;;;15.49;100.00;155340.63;5027856;28;20466;-76
2022/10/18 02:00:15;;;;;;;7.10;5.40;;;;;;;15.44;100.00;155327.59;5038088;28;20458;-76
2022/10/18 02:02:47;;;;;;;6.27;5.20;;;;;;;15.47;100.00;155335.44;5030349;28;20478;-76
2022/10/18 02:05:23;;;;;;;8.57;4.90;;;;;;;15.47;100.00;155335.44;4995107;28;20444;-76
2022/10/18 02:07:53;;;;;;;5.20;4.70;;;;;;;15.48;100.00;155336.75;5005153;28;20452;-76
2022/10/18 02:10:25;;;;;;;6.37;4.93;;;;;;;15.46;100.00;155331.56;5031008;28;20447;-76
2022/10/18 02:12:52;;;;;;;6.90;4.87;;;;;;;15.46;100.00;155332.81;5010360;28;20586;-76
2022/10/18 02:15:22;;;;;;;7.13;5.10;;;;;;;15.45;100.00;155328.91;5013831;28;20463;-76
2022/10/18 02:17:50;;;;;;;5.00;4.50;;;;;;;15.46;100.00;155331.56;5021993;28;20542;-76
2022/10/18 02:20:20;;;;;;;9.80;5.10;;;;;;;15.42;100.00;155321.09;5031958;28;20431;-76
2022/10/18 02:22:48;;;;;;;6.47;5.43;;;;;;;15.43;100.00;155325.00;5019237;28;20482;-76
2022/10/18 02:25:18;;;;;;;6.40;5.07;;;;;;;15.45;100.00;155328.91;5014139;28;20547;-76
2022/10/18 02:27:44;;;;;;;6.33;5.30;;;;;;;15.43;100.00;155323.72;5027354;28;20449;-76
2022/10/18 02:30:12;;;;;;;6.77;5.17;;;;;;;15.37;100.00;155309.41;5026521;28;20465;-76
2022/10/18 02:32:41;;;;;;;7.73;4.50;;;;;;;15.37;100.00;155309.41;5028006;28;20451;-76
2022/10/18 02:35:11;;;;;;;7.03;4.53;;;;;;;15.38;100.00;155311.97;5020463;28;20870;-76
2022/10/18 02:37:39;;;;;;;8.23;4.90;;;;;;;15.38;100.00;155310.72;5015477;28;20448;-76
2022/10/18 02:40:07;;;;;;;7.57;5.43;;;;;;;15.35;100.00;155304.22;5009051;28;20459;-76
2022/10/18 02:42:35;;;;;;;5.80;5.17;;;;;;;15.37;100.00;155308.09;5042043;28;20463;-76
2022/10/18 02:45:02;;;;;;;6.63;4.90;;;;;;;15.33;100.00;155298.97;5049540;28;20440;-76
2022/10/18 02:47:28;;;;;;;6.70;5.23;;;;;;;15.37;100.00;155308.09;5014992;28;20879;-76
2022/10/18 02:49:55;;;;;;;9.30;5.20;;;;;;;15.37;100.00;155308.09;5018643;28;20452;-76
2022/10/18 02:52:23;;;;;;;6.50;5.03;;;;;;;15.38;100.00;155311.97;5037943;28;20432;-76
2022/10/18 02:54:50;;;;;;;7.17;5.10;;;;;;;15.38;100.00;155311.97;5015549;28;20452;-76
2022/10/18 02:57:17;;;;;;;5.47;4.87;;;;;;;15.36;100.00;155306.78;5027477;28;20538;-76
2022/10/18 02:59:43;;;;;;;7.57;5.00;;;;;;;15.37;100.00;155309.41;5004211;28;20459;-76
2022/10/18 03:02:10;;;;;;;5.50;4.63;;;;;;;15.39;100.00;155313.28;5032366;28;20443;-76
2022/10/18 03:04:36;;;;;;;5.70;4.80;;;;;;;15.36;100.00;155305.47;5033195;28;20443;-76
2022/10/18 03:07:03;;;;;;;5.93;4.40;;;;;;;15.36;100.00;155306.78;5025740;28;20562;-76
2022/10/18 03:09:31;;;;;;;5.30;4.60;;;;;;;15.36;100.00;155306.78;5026527;28;20462;-75
2022/10/18 03:11:59;;;;;;;5.27;4.77;;;;;;;15.37;100.00;155308.09;5031428;28;20447;-76
2022/10/18 03:14:25;;;;;;;17.13;5.17;;;;;;;15.37;100.00;155309.41;5031604;28;20425;-76
2022/10/18 03:16:52;;;;;;;6.20;4.20;;;;;;;15.37;100.00;155309.41;5041605;28;20526;-76
2022/10/18 03:19:19;;;;;;;5.40;4.00;;;;;;;15.36;100.00;155306.78;5030384;28;20458;-76
2022/10/18 03:21:45;;;;;;;5.40;4.90;;;;;;;15.34;100.00;155300.28;5029853;28;20805;-76
2022/10/18 03:24:12;;;;;;;9.10;5.50;;;;;;;15.35;100.00;155302.91;5027004;28;20476;-76
2022/10/18 03:26:40;;;;;;;7.90;4.80;;;;;;;15.37;100.00;155308.09;5020171;28;20539;-76
2022/10/18 03:29:06;;;;;;;5.90;5.10;;;;;;;15.38;100.00;155310.72;5014202;28;20444;-76
2022/10/18 03:31:33;;;;;;;5.40;4.50;;;;;;;15.35;100.00;155304.22;5022574;28;20861;-76
2022/10/18 03:34:00;;;;;;;8.53;5.20;;;;;;;15.35;100.00;155304.22;5025276;28;20510;-76
2022/10/18 03:36:26;;;;;;;5.07;4.30;;;;;;;15.37;100.00;155309.41;5031309;28;21212;-75
2022/10/18 03:38:53;;;;;;;9.43;4.63;;;;;;;15.34;100.00;155301.59;5009559;28;20510;-76
2022/10/18 03:41:20;;;;;;;6.10;4.87;;;;;;;15.35;100.00;155304.22;5031594;28;20963;-89
2022/10/18 03:43:48;;;;;;;8.10;4.93;;;;;;;15.34;100.00;155301.59;5032209;28;20474;-89
2022/10/18 03:46:15;;;;;;;5.20;4.70;;;;;;;15.34;100.00;155300.28;5035043;28;20857;-89
2022/10/18 03:48:41;;;;;;;6.40;4.80;;;;;;;15.27;100.00;155284.69;5027205;28;20451;-89
2022/10/18 03:51:08;;;;;;;5.60;4.20;;;;;;;15.27;100.00;155284.69;5036181;28;20459;-89
2022/10/18 03:53:35;;;;;;;5.07;4.57;;;;;;;15.31;100.00;155292.50;5029202;28;20450;-89
2022/10/18 03:56:01;;;;;;;5.33;4.83;;;;;;;15.27;100.00;155284.69;5012346;28;20452;-89
2022/10/18 03:58:28;;;;;;;8.83;4.67;;;;;;;15.27;100.00;155282.13;5022574;28;20446;-89
2022/10/18 04:00:56;;;;;;;5.20;4.47;;;;;;;15.29;100.00;155288.63;5021361;28;20488;-89
2022/10/18 04:03:23;;;;;;;5.13;4.60;;;;;;;15.25;100.00;155279.50;5030431;28;20459;-89
2022/10/18 04:05:50;;;;;;;6.90;4.70;;;;;;;15.24;100.00;155275.63;5011159;28;20455;-89
2022/10/18 04:08:17;;;;;;;8.60;4.93;;;;;;;15.22;100.00;155270.44;5000604;28;20452;-76
2022/10/18 04:10:44;;;;;;;8.13;5.00;;;;;;;15.19;100.00;155262.63;5025708;28;20440;-76
2022/10/18 04:13:11;;;;;;;5.50;4.90;;;;;;;15.10;100.00;155239.22;5020695;28;20452;-76
2022/10/18 04:15:37;;;;;;;9.03;5.47;;;;;;;15.08;100.00;155234.03;4999463;28;20467;-76
2022/10/18 04:18:05;;;;;;;6.60;5.63;;;;;;;15.05;100.00;155226.22;5008822;28;20921;-76
2022/10/18 04:20:32;;;;;;;6.83;4.73;;;;;;;14.99;100.00;155210.63;5010378;28;20547;-76
2022/10/18 04:22:59;;;;;;;10.30;5.47;;;;;;;14.96;100.00;155202.81;4999621;28;20468;-76
2022/10/18 04:25:25;;;;;;;7.30;4.77;;;;;;;14.88;100.00;155183.34;4990949;28;20475;-76
2022/10/18 04:27:52;;;;;;;9.20;4.73;;;;;;;14.88;100.00;155182.09;5001862;28;21946;-76
2022/10/18 04:30:19;;;;;;;7.53;5.17;;;;;;;14.83;100.00;155169.06;5010551;28;20655;-75
2022/10/18 04:32:45;;;;;;;7.47;5.00;;;;;;;14.80;100.00;155161.31;5012043;28;20421;-75
2022/10/18 04:35:13;;;;;;;6.87;5.33;;;;;;;14.78;100.00;155156.06;4999586;28;20469;-76
2022/10/18 04:37:40;;;;;;;10.17;5.50;;;;;;;14.74;100.00;155147.00;5009316;28;20455;-76
2022/10/18 04:40:08;;;;;;;5.50;5.00;;;;;;;14.72;100.00;155140.50;4995495;28;20459;-76
2022/10/18 04:42:35;;;;;;;5.50;5.00;;;;;;;14.71;100.00;155137.91;5029886;28;20451;-76
2022/10/18 04:45:01;;;;;;;6.83;5.77;;;;;;;14.74;100.00;155145.69;5016426;28;20508;-76
2022/10/18 04:47:28;;;;;;;5.77;4.93;;;;;;;14.71;100.00;155137.91;5009951;28;20492;-76
2022/10/18 04:49:55;;;;;;;7.20;4.97;;;;;;;14.66;100.00;155126.22;5000601;28;20467;-76
2022/10/18 04:52:23;;;;;;;8.23;5.40;;;;;;;14.68;100.00;155131.41;4995829;28;20477;-75
2022/10/18 04:54:49;;;;;;;7.60;5.40;;;;;;;14.67;100.00;155127.53;5011910;28;20952;-76
2022/10/18 04:57:16;;;;;;;6.90;4.80;;;;;;;14.61;100.00;155114.50;5008276;28;20560;-76
2022/10/18 04:59:43;;;;;;;6.50;5.47;;;;;;;14.59;100.00;155109.31;4993079;28;20456;-76
2022/10/18 05:02:09;;;;;;;8.73;5.47;;;;;;;14.59;100.00;155108.00;5029190;28;20456;-76
2022/10/18 05:04:36;;;;;;;6.87;5.30;;;;;;;14.58;100.00;155105.44;5026395;28;20483;-75
2022/10/18 05:07:04;;;;;;;5.70;5.10;;;;;;;14.55;100.00;155098.94;5025400;28;20539;-76
2022/10/18 05:09:33;;;;;;;7.30;5.50;;;;;;;14.55;100.00;155098.94;5024866;28;20492;-76
2022/10/18 05:12:00;;;;;;;5.47;4.97;;;;;;;14.57;100.00;155102.81;4989781;28;20806;-76
2022/10/18 05:14:26;;;;;;;6.20;5.40;;;;;;;14.58;100.00;155106.75;5015738;28;20682;-76
2022/10/18 05:16:53;;;;;;;7.30;5.10;;;;;;;14.61;100.00;155113.25;5012966;28;20452;-76
2022/10/18 05:19:20;;;;;;;7.53;4.97;;;;;;;14.64;100.00;155122.28;5013435;28;20814;-76
2022/10/18 05:21:47;;;;;;;5.87;4.90;;;;;;;14.65;100.00;155123.59;5013342;28;20480;-76
2022/10/18 05:24:13;;;;;;;10.37;7.03;;;;;;;14.68;100.00;155131.41;5008406;28;20817;-89
2022/10/18 05:26:41;;;;;;;8.03;4.67;;;;;;;14.66;100.00;155126.22;4988228;28;20895;-89
2022/10/18 05:29:08;;;;;;;6.70;5.00;;;;;;;14.64;100.00;155122.28;5000701;28;20455;-89
2022/10/18 05:31:35;;;;;;;6.50;5.00;;;;;;;14.68;100.00;155130.09;5010473;28;20464;-89
2022/10/18 05:34:01;;;;;;;7.23;4.53;;;;;;;14.70;100.00;155135.28;5013283;28;20441;-89
2022/10/18 05:36:28;;;;;;;6.93;4.90;;;;;;;14.70;100.00;155136.59;5012395;28;20700;-90
2022/10/18 05:38:55;;;;;;;6.93;5.60;;;;;;;14.70;100.00;155135.28;5026055;28;20451;-89
2022/10/18 05:41:22;;;;;;;5.60;4.40;;;;;;;14.73;100.00;155144.38;5005985;28;20529;-89
2022/10/18 05:43:50;;;;;;;6.13;4.30;;;;;;;14.76;100.00;155150.88;5028406;28;20582;-89
2022/10/18 05:46:16;;;;;;;7.57;5.00;;;;;;;14.75;100.00;155148.25;5008868;28;20446;-89
2022/10/18 05:48:44;;;;;;;5.37;4.63;;;;;;;14.77;100.00;155154.81;5011206;28;20457;-89
2022/10/18 05:51:11;;;;;;;6.83;4.70;;;;;;;14.80;100.00;155161.31;5019262;28;20447;-89
2022/10/18 05:53:37;;;;;;;5.40;4.90;;;;;;;14.81;100.00;155165.19;5003336;28;20440;-89
2022/10/18 05:56:05;;;;;;;4.97;4.27;;;;;;;14.85;100.00;155174.28;4996027;28;20441;-89
2022/10/18 05:58:32;;;;;;;10.20;4.70;;;;;;;14.89;100.00;155184.66;5017365;28;20823;-89
2022/10/18 06:01:00;;;;;;;4.73;4.03;;;;;;;14.93;100.00;155195.06;4997024;28;20479;-89
2022/10/18 06:03:29;;;;;;;5.50;4.10;;;;;;;14.98;100.00;155208.06;5000249;28;20483;-89
2022/10/18 06:05:59;;;;;;;7.77;4.83;;;;;;;15.01;100.00;155217.13;5028761;28;20454;-89
2022/10/18 06:08:26;;;;;;;4.23;3.83;;;;;;;15.04;100.00;155224.94;5021816;28;21603;-76
2022/10/18 06:10:52;;;;;;;5.73;4.90;;;;;;;15.07;100.00;155231.41;5018059;28;20455;-76
2022/10/18 06:13:19;;;;;;;6.30;4.43;;;;;;;15.12;100.00;155244.41;5019610;28;20521;-75
2022/10/18 06:15:46;;;;;;;11.93;4.23;;;;;;;15.14;100.00;155250.91;5019769;28;20464;-75
2022/10/18 06:18:14;;;;;;;4.73;4.23;;;;;;;15.16;100.00;155254.81;5030938;28;20458;-76
2022/10/18 06:20:40;;;;;;;5.60;4.80;;;;;;;15.22;100.00;155271.69;5009196;28;20464;-76
2022/10/18 06:23:07;;;;;;;5.50;4.50;;;;;;;15.27;100.00;155284.69;5022787;28;20469;-76
2022/10/18 06:25:34;;;;;;;4.83;4.33;;;;;;;15.33;100.00;155297.72;4996005;28;20472;-76
2022/10/18 06:28:00;;;;;;;4.83;4.40;;;;;;;15.38;100.00;155311.97;5011118;28;20452;-76
2022/10/18 06:30:27;;;;;;;5.40;4.47;;;;;;;15.46;100.00;155332.81;5021834;28;20470;-76
2022/10/18 06:32:59;;;;;;;8.50;4.40;;;;;;;15.59;100.00;155366.66;5023254;28;20436;-76
2022/10/18 06:35:27;;;;;;;8.17;4.70;;;;;;;15.81;100.00;155423.81;5028549;28;20579;-76
2022/10/18 06:37:54;;;;;;;11.03;4.53;;;;;;;16.09;100.00;155494.06;5017870;28;20444;-76
2022/10/18 06:40:20;;;;;;;7.10;4.57;;;;;;;16.35;100.00;155561.66;5013801;28;20587;-76
2022/10/18 06:42:48;;;;;;;5.47;4.97;;;;;;;16.64;100.00;155637.16;5039891;28;20432;-76
2022/10/18 06:45:17;;;;;;;5.00;4.20;;;;;;;16.86;100.00;155694.41;5040151;28;20706;-76
2022/10/18 06:47:43;;;;;;;5.70;4.40;;;;;;;17.11;100.00;155756.84;5026274;28;20461;-76
2022/10/18 06:50:11;;;;;;;4.40;4.00;;;;;;;17.19;100.00;155778.97;5001826;28;20448;-76
2022/10/18 06:52:40;;;;;;;4.77;4.17;;;;;;;17.18;100.00;155775.09;5025954;28;20458;-76
2022/10/18 06:55:09;;;;;;;5.80;4.40;;;;;;;17.14;100.00;155765.97;5029696;28;20463;-90
2022/10/18 06:57:35;;;;;;;4.93;4.20;;;;;;;17.17;100.00;155772.47;5013229;28;20444;-91
2022/10/18 07:00:04;;;;;;;12.23;4.30;;;;;;;17.29;100.00;155803.72;5002413;28;20441;-93
2022/10/18 07:02:31;;;;;;;8.20;4.60;;;;;;;17.37;99.09;155824.50;5014596;28;20480;-90
2022/10/18 07:04:57;;;;;;;10.40;6.23;;;;;;;17.42;99.13;155837.56;5030387;28;20476;-88
2022/10/18 07:07:24;;;;;;;5.17;4.00;;;;;;;17.36;98.80;155821.94;5029492;28;20808;-91
2022/10/18 07:09:52;;;;;;;4.80;4.20;;;;;;;17.32;99.00;155811.50;5029027;28;20449;-91
2022/10/18 07:12:19;;;;;;;6.47;4.33;;;;;;;17.30;99.46;155807.63;5013606;28;20939;-89
2022/10/18 07:14:46;;;;;;;5.27;3.80;;;;;;;17.26;99.16;155795.91;5013080;28;20452;-91
2022/10/18 07:17:12;;;;;;;4.47;3.80;;;;;;;17.23;98.81;155789.41;5035958;28;20923;-89
2022/10/18 07:19:39;;;;;;;5.10;3.93;;;;;;;17.21;99.68;155784.16;5010355;28;20559;-90
2022/10/18 07:22:06;;;;;;;6.00;4.60;;;;;;;17.23;99.90;155789.41;5004507;28;20433;-90
2022/10/18 07:24:33;;;;;;;5.00;4.33;;;;;;;17.20;99.50;155780.28;5001940;28;20488;-89
2022/10/18 07:27:00;;;;;;;6.60;4.00;;;;;;;17.21;100.00;155782.91;5029869;28;20459;-89
2022/10/18 07:29:27;;;;;;;4.17;3.80;;;;;;;17.24;98.89;155791.97;5019511;28;20445;-90
2022/10/18 07:31:54;;;;;;;4.93;4.50;;;;;;;17.23;99.51;155789.41;5036317;28;20459;-90
2022/10/18 07:34:21;;;;;;;4.43;4.00;;;;;;;17.23;99.72;155788.09;5028824;28;20447;-90
2022/10/18 07:36:47;;;;;;;6.47;4.70;;;;;;;17.23;98.96;155788.09;5021689;28;20492;-89
2022/10/18 07:39:14;;;;;;;3.87;3.47;;;;;;;17.22;99.53;155785.47;4986322;28;20456;-91
2022/10/18 07:41:41;;;;;;;6.90;4.90;;;;;;;17.22;100.00;155785.47;5032419;28;20507;-90
2022/10/18 07:44:09;;;;;;;6.03;4.10;;;;;;;17.21;100.00;155784.16;5017534;28;20464;-90
2022/10/18 07:46:36;;;;;;;6.80;4.70;;;;;;;17.21;100.00;155784.16;5035455;28;20543;-88
2022/10/18 07:49:03;;;;;;;6.47;4.47;;;;;;;17.20;100.00;155781.59;5011434;28;20452;-89
2022/10/18 07:51:31;;;;;;;5.00;4.50;;;;;;;17.21;100.00;155782.91;5020761;28;20455;-91
2022/10/18 07:53:58;;;;;;;4.73;4.33;;;;;;;17.24;100.00;155790.66;5035244;28;20480;-91
2022/10/18 07:56:25;;;;;;;5.07;4.47;;;;;;;17.25;100.00;155793.28;5015761;28;20461;-90
2022/10/18 07:58:52;;;;;;;5.90;4.07;;;;;;;17.26;100.00;155797.16;5015471;28;20442;-89
2022/10/18 08:01:22;;;;;;;5.50;4.60;;;;;;;17.31;100.00;155808.91;4999489;28;21110;-89
2022/10/18 08:03:48;;;;;;;5.10;4.37;;;;;;;17.32;100.00;155811.50;5031711;28;20441;-90
2022/10/18 08:06:17;;;;;;;5.93;4.50;;;;;;;17.38;100.00;155827.13;5017624;28;20457;-90
2022/10/18 08:08:45;;;;;;;6.73;4.57;;;;;;;17.41;100.00;155836.25;5014007;28;20488;-90
2022/10/18 08:11:14;;;;;;;5.63;4.33;;;;;;;17.50;100.00;155858.38;5030185;28;20452;-90
2022/10/18 08:13:41;;;;;;;8.40;4.50;;;;;;;17.66;99.85;155900.06;5009916;28;20520;-90
2022/10/18 08:16:09;;;;;;;5.00;4.50;;;;;;;17.71;99.93;155913.13;5003786;28;20517;-91
2022/10/18 08:18:38;;;;;;;7.10;4.83;;;;;;;17.75;99.16;155922.19;5000976;28;20467;-91
2022/10/18 08:21:06;;;;;;;6.60;4.80;;;;;;;17.77;98.90;155927.38;5013300;28;20445;-90
2022/10/18 08:23:33;;;;;;;12.37;5.40;;;;;;;17.82;98.89;155941.72;5011938;28;20443;-90
2022/10/18 08:26:01;;;;;;;8.30;4.30;;;;;;;17.84;99.41;155946.97;5027323;28;20499;-91
2022/10/18 08:28:27;;;;;;;6.83;4.80;;;;;;;17.86;99.24;155952.16;5012554;28;20449;-90
2022/10/18 08:30:54;;;;;;;6.33;4.73;;;;;;;17.86;99.27;155950.84;5026928;28;20487;-91
2022/10/18 08:33:20;;;;;;;5.10;4.57;;;;;;;17.83;100.00;155943.03;5008484;28;20453;-91
2022/10/18 08:35:56;;;;;;;7.97;4.57;;;;;;;17.90;98.85;155962.56;5010365;28;20781;-91
2022/10/18 08:38:22;;;;;;;6.30;4.87;;;;;;;17.94;98.90;155971.69;5013006;28;20875;-91
2022/10/18 08:40:49;;;;;;;6.17;4.37;;;;;;;17.98;98.74;155983.38;5011805;28;20455;-91
2022/10/18 08:43:22;;;;;;;5.53;4.70;;;;;;;18.02;99.41;155992.53;5009162;28;20444;-91
2022/10/18 08:45:49;;;;;;;5.43;4.67;;;;;;;18.08;98.73;156008.16;5005131;28;20488;-91
2022/10/18 08:48:21;;;;;;;7.40;4.60;;;;;;;18.14;98.27;156025.06;5009698;28;20484;-91
2022/10/18 08:50:48;;;;;;;7.13;4.27;;;;;;;18.27;97.75;156058.91;5009372;28;20885;-91
2022/10/18 08:53:19;;;;;;;5.07;4.57;;;;;;;18.41;99.21;156094.09;5013367;28;20468;-91
2022/10/18 08:55:51;;;;;;;5.47;4.20;;;;;;;18.52;97.95;156121.50;5012404;28;20523;-91
2022/10/18 08:58:20;;;;;;;5.53;4.40;;;;;;;18.65;96.50;156156.66;5010915;28;20468;-91
2022/10/18 09:00:58;;;;;;;5.27;4.30;;;;;;;18.75;96.66;156181.41;5019613;28;20826;-91
2022/10/18 09:03:41;;;;;;;4.90;4.03;;;;;;;18.83;95.90;156203.56;5013712;28;20458;-91
2022/10/18 09:06:15;;;;;;;6.70;4.67;;;;;;;18.91;97.23;156221.78;5011495;28;20486;-91
2022/10/18 09:09:00;;;;;;;5.67;4.23;;;;;;;18.91;94.58;156223.09;5029082;28;20447;-91
2022/10/18 09:11:38;;;;;;;4.93;4.43;;;;;;;18.94;94.48;156229.63;5029553;28;20456;-91
2022/10/18 09:14:26;;;;;;;10.57;4.90;;;;;;;18.90;93.57;156220.53;5003589;28;20447;-91
2022/10/18 09:16:59;;;;;;;17.20;4.43;;;;;;;18.89;93.55;156217.91;5030323;28;20432;-91
2022/10/18 09:19:46;;;;;;;5.40;4.10;;;;;;;18.88;93.55;156214.03;5031384;28;20420;-91
2022/10/18 09:22:14;;;;;;;5.27;4.53;;;;;;;18.92;94.17;156225.72;5029346;28;20432;-91
2022/10/18 09:24:46;;;;;;;5.40;4.57;;;;;;;19.03;93.99;156254.41;5028874;28;20511;-91
2022/10/18 09:27:16;;;;;;;4.97;3.73;;;;;;;19.10;93.89;156272.63;5013826;28;20428;-91
2022/10/18 09:29:59;;;;;;;4.80;3.70;;;;;;;19.23;93.15;156306.53;5015342;28;20463;-91
2022/10/18 09:32:32;;;;;;;8.40;4.53;;;;;;;19.38;91.95;156345.66;5030842;28;20543;-91
2022/10/18 09:35:02;;;;;;;4.47;3.77;;;;;;;19.50;91.86;156375.66;5031433;28;20480;-91
2022/10/18 09:37:30;;;;;;;6.50;3.70;;;;;;;19.51;90.11;156376.97;5031039;28;20461;-91
2022/10/18 09:40:04;;;;;;;5.90;4.30;;;;;;;19.67;90.21;156418.69;5031504;28;20444;-91
2022/10/18 09:42:34;;;;;;;6.07;3.90;;;;;;;19.72;90.08;156431.72;5008924;28;20546;-92
2022/10/18 09:45:03;;;;;;;4.77;3.93;;;;;;;19.86;88.03;156468.19;5030902;28;20494;-91
2022/10/18 09:47:35;;;;;;;4.83;3.60;;;;;;;19.98;89.03;156499.50;5032189;28;20535;-91
2022/10/18 09:50:03;;;;;;;7.20;3.90;;;;;;;20.04;88.00;156515.19;5005258;28;20502;-91
2022/10/18 09:52:35;;;;;;;4.53;3.63;;;;;;;20.02;89.49;156509.91;5012862;28;20815;-91
2022/10/18 09:55:05;;;;;;;4.53;4.07;;;;;;;20.14;86.66;156541.25;5030483;28;20470;-91
2022/10/18 09:57:36;;;;;;;6.90;4.00;;;;;;;20.13;86.76;156537.31;5037371;28;20443;-91
2022/10/18 10:00:05;;;;;;;5.67;4.07;;;;;;;19.99;88.74;156503.41;5033387;28;20448;-91
2022/10/18 10:02:31;;;;;;;9.97;6.33;;;;;;;20.00;87.09;156504.72;5037281;28;20850;-91
2022/10/18 10:04:58;;;;;;;5.67;4.73;;;;;;;19.91;87.98;156481.22;5037704;28;20505;-91
2022/10/18 10:07:27;;;;;;;6.67;4.73;;;;;;;19.87;88.73;156470.81;5034794;28;20492;-90
2022/10/18 10:09:57;;;;;;;6.00;4.80;;;;;;;19.91;88.52;156482.53;5016784;28;20531;-90
2022/10/18 10:12:33;;;;;;;7.63;5.10;;;;;;;19.94;87.40;156489.06;5032696;28;20434;-90
2022/10/18 10:15:08;;;;;;;6.90;4.80;;;;;;;19.68;88.74;156422.56;5032754;28;20443;-90
2022/10/18 10:17:41;;;;;;;7.93;4.43;;;;;;;19.78;88.36;156447.31;5031872;28;20477;-90
2022/10/18 10:20:20;;;;;;;6.17;4.67;;;;;;;19.76;87.84;156443.44;5041568;28;20455;-91
2022/10/18 10:22:47;;;;;;;8.13;5.03;;;;;;;19.71;88.42;156430.41;5036923;28;20469;-90
2022/10/18 10:25:21;;;;;;;7.53;5.17;;;;;;;19.63;89.10;156408.22;5001803;28;20878;-91
2022/10/18 10:27:49;;;;;;;5.87;5.27;;;;;;;19.59;89.43;156399.09;4982661;28;20433;-90
2022/10/18 10:30:25;;;;;;;5.90;5.17;;;;;;;19.60;89.46;156401.72;4998938;28;20480;-90
2022/10/18 10:32:53;;;;;;;10.13;6.07;;;;;;;19.67;89.16;156418.69;5031817;28;20439;-90
2022/10/18 10:35:29;;;;;;;6.13;5.33;;;;;;;19.67;88.62;156419.94;5048608;28;20453;-90
2022/10/18 10:37:55;;;;;;;8.57;5.10;;;;;;;19.53;89.69;156382.16;5059146;28;20439;-89
2022/10/18 10:40:23;;;;;;;5.77;4.90;;;;;;;19.50;89.06;156374.34;5026735;28;20462;-90
2022/10/18 10:42:59;;;;;;;7.10;5.20;;;;;;;19.41;89.38;156352.16;5017604;28;20930;-89
2022/10/18 10:45:27;;;;;;;6.40;4.67;;;;;;;19.49;88.86;156371.72;5033576;28;20585;-90
2022/10/18 10:47:55;;;;;;;5.77;4.10;;;;;;;19.47;89.80;156367.81;5015542;28;20530;-90
2022/10/18 10:50:24;;;;;;;6.13;5.47;;;;;;;19.58;90.54;156395.19;5007120;28;20535;-90
2022/10/18 10:52:51;;;;;;;5.73;5.13;;;;;;;19.62;90.91;156405.66;5039058;28;20451;-90
2022/10/18 10:55:20;;;;;;;6.83;5.33;;;;;;;19.60;89.98;156400.41;5052050;28;20459;-90
2022/10/18 10:57:48;;;;;;;8.97;5.30;;;;;;;19.68;89.84;156421.25;5049788;28;20454;-90
2022/10/18 11:00:36;;;;;;;6.93;5.90;;;;;;;19.53;89.89;156382.16;5025058;28;20469;-89
2022/10/18 11:03:06;;;;;;;6.90;6.23;;;;;;;19.53;89.10;156383.47;5027636;28;20462;-91
2022/10/18 11:05:43;;;;;;;8.70;5.90;;;;;;;19.38;91.34;156344.34;5029326;28;20560;-91
2022/10/18 11:08:11;;;;;;;8.33;5.73;;;;;;;19.34;91.84;156335.19;5042679;28;20951;-91
2022/10/18 11:10:49;;;;;;;9.83;4.90;;;;;;;19.43;89.78;156358.69;4991543;28;20805;-79
2022/10/18 11:13:24;;;;;;;5.97;4.90;;;;;;;19.56;89.76;156391.31;5026725;28;20958;-79
2022/10/18 11:15:58;;;;;;;8.27;5.60;;;;;;;19.41;90.83;156352.16;5026427;28;20463;-79
2022/10/18 11:18:28;;;;;;;8.57;5.87;;;;;;;19.40;90.88;156350.91;5025199;28;20500;-79
2022/10/18 11:21:01;;;;;;;5.47;4.63;;;;;;;19.35;90.74;156337.78;5013023;28;20567;-79
2022/10/18 11:23:31;;;;;;;6.67;5.97;;;;;;;19.34;89.74;156335.19;5012854;28;20558;-79
2022/10/18 11:26:15;;;;;;;11.87;5.60;;;;;;;19.25;90.34;156311.72;5014488;28;20487;-79
2022/10/18 11:29:06;;;;;;;10.57;5.57;;;;;;;19.19;91.47;156296.13;5024766;28;20550;-79